Ulusoy 5 — TCUV — position and weather

sailwx.info

Track history (hours):
 
Tides and Currents Weather Stations Pressure Air Temp Water Temp Dewpoint Dewpoint Depression Visibility Wind Speed Wind Dir Waves Ship Positions

Ulusoy 5

Last reported at 2017-Nov-04 19:58 UTC. Time now 2017-Nov-22 16:38 UTC.
Position N 36°28' E 014°44'.
Warning: this ship's position is 17 days out of date.

Length 165 m; draft 6.2 m.

Type: Cargo ship. MMSI: 271000426.

Date/timePositionNaut miles runAvg speedWind from/ knotsBaromVisibWave heightAir tempDewpointWater temp
2017-Nov-04 19:58N 36°28' E 014°44'613.7
2017-Nov-04 19:30N 36°28' E 014°37'714.2
2017-Nov-04 19:00N 36°30' E 014°28'714.3
2017-Nov-04 18:30N 36°31' E 014°20'714.1
2017-Nov-04 18:00N 36°33' E 014°11'714.1
2017-Nov-04 17:30N 36°35' E 014°03'714.1
2017-Nov-04 17:00N 36°38' E 013°54'714.0
2017-Nov-04 16:30N 36°40' E 013°46'713.7
2017-Nov-04 16:00N 36°42' E 013°38'713.5
2017-Nov-04 15:30N 36°44' E 013°30'2013.6
2017-Nov-04 14:01N 36°50' E 013°06'20812.2
2017-Nov-03 21:00N 37°18' E 008°47'2313.5
2017-Nov-03 19:19N 37°16' E 008°19'  
2017-Nov-01 01:58N 35°60' W 005°22'34213.5
2017-Oct-31 00:42N 32°06' W 010°23'314.8
2017-Oct-31 00:28N 32°04' W 010°26'714.7
2017-Oct-31 00:00N 31°58' W 010°30'714.4
2017-Oct-30 23:30N 31°52' W 010°34'714.6
2017-Oct-30 23:00N 31°46' W 010°39'714.4
2017-Oct-30 22:30N 31°40' W 010°44'714.2
2017-Oct-30 22:00N 31°34' W 010°49'714.1
2017-Oct-30 21:30N 31°28' W 010°53'1013.4
2017-Oct-30 20:47N 31°20' W 010°60'413.2
2017-Oct-30 20:30N 31°17' W 011°02'813.3
2017-Oct-30 19:55N 31°10' W 011°06'1213.2
2017-Oct-30 18:59N 31°00' W 011°15'713.7
2017-Oct-30 18:30N 30°55' W 011°19'713.9
2017-Oct-30 18:00N 30°49' W 011°24'714.2
2017-Oct-30 17:30N 30°43' W 011°28'714.0
2017-Oct-30 17:01N 30°37' W 011°32'714.2
2017-Oct-30 16:30N 30°31' W 011°37'714.0
2017-Oct-30 16:00N 30°26' W 011°42'713.7
2017-Oct-30 15:30N 30°20' W 011°46'713.7
2017-Oct-30 15:00N 30°14' W 011°51'813.7
2017-Oct-30 14:24N 30°07' W 011°56'4513.9
2017-Oct-30 11:11N 29°30' W 012°24'314.1
2017-Oct-30 11:00N 29°28' W 012°26'714.1
2017-Oct-30 10:30N 29°22' W 012°30'714.2
2017-Oct-30 10:00N 29°16' W 012°35'3114.2
2017-Oct-30 07:50N 28°50' W 012°54'514.2
2017-Oct-30 07:30N 28°47' W 012°58'814.2
2017-Oct-30 06:58N 28°40' W 013°02'2313.9
2017-Oct-30 05:19N 28°21' W 013°16'414.0
2017-Oct-30 05:00N 28°17' W 013°19'814.1
2017-Oct-30 04:28N 28°11' W 013°24'914.2
2017-Oct-30 03:52N 28°04' W 013°30'514.1
2017-Oct-30 03:30N 27°60' W 013°33'714.1
2017-Oct-30 03:00N 27°54' W 013°37'713.9
2017-Oct-30 02:30N 27°48' W 013°41'713.8
2017-Oct-30 02:00N 27°42' W 013°46'713.6
2017-Oct-30 01:28N 27°36' W 013°50'613.4
2017-Oct-30 01:01N 27°31' W 013°54'713.5
2017-Oct-30 00:29N 27°25' W 013°59'613.5
2017-Oct-30 00:00N 27°20' W 014°03'713.4
2017-Oct-29 23:30N 27°14' W 014°07'713.2
2017-Oct-29 22:57N 27°08' W 014°11'613.1
2017-Oct-29 22:30N 27°03' W 014°15'713.9
2017-Oct-29 21:59N 26°57' W 014°19'714.1
2017-Oct-29 21:29N 26°51' W 014°24'814.1
2017-Oct-29 20:53N 26°44' W 014°29'2114.0
2017-Oct-29 19:21N 26°27' W 014°43'5713.5
2017-Oct-29 15:09N 25°38' W 015°15'1612.2
2017-Oct-29 13:52N 25°25' W 015°24'1412.9
2017-Oct-29 12:47N 25°13' W 015°32'28513.5
2017-Oct-28 15:35N 21°02' W 017°60'213.7
2017-Oct-28 15:28N 21°00' W 018°00'1614.2
2017-Oct-28 14:21N 20°46' W 018°08'19413.6
2017-Oct-28 00:05N 17°51' W 019°36'113.9
2017-Oct-28 00:00N 17°50' W 019°36'713.7
2017-Oct-27 23:30N 17°44' W 019°39'1513.7
2017-Oct-27 22:23N 17°30' W 019°46'  
Track history (hours):
 
Tides and Currents Weather Stations Pressure Air Temp Water Temp Dewpoint Dewpoint Depression Visibility Wind Speed Wind Dir Waves Ship Positions

Ulusoy 5

Last reported at 2017-Nov-04 19:58 UTC. Time now 2017-Nov-22 16:38 UTC.
Position N 36°28' E 014°44'.
Warning: this ship's position is 17 days out of date.

Length 165 m; draft 6.2 m.

Type: Cargo ship. MMSI: 271000426.

Date/timePositionNaut miles runAvg speedWind from/ knotsBaromVisibWave heightAir tempDewpointWater temp
2017-Nov-04 19:58N 36°28' E 014°44'613.7
2017-Nov-04 19:30N 36°28' E 014°37'714.2
2017-Nov-04 19:00N 36°30' E 014°28'714.3
2017-Nov-04 18:30N 36°31' E 014°20'714.1
2017-Nov-04 18:00N 36°33' E 014°11'714.1
2017-Nov-04 17:30N 36°35' E 014°03'714.1
2017-Nov-04 17:00N 36°38' E 013°54'714.0
2017-Nov-04 16:30N 36°40' E 013°46'713.7
2017-Nov-04 16:00N 36°42' E 013°38'713.5
2017-Nov-04 15:30N 36°44' E 013°30'2013.6
2017-Nov-04 14:01N 36°50' E 013°06'20812.2
2017-Nov-03 21:00N 37°18' E 008°47'2313.5
2017-Nov-03 19:19N 37°16' E 008°19'  
2017-Nov-01 01:58N 35°60' W 005°22'34213.5
2017-Oct-31 00:42N 32°06' W 010°23'314.8
2017-Oct-31 00:28N 32°04' W 010°26'714.7
2017-Oct-31 00:00N 31°58' W 010°30'714.4
2017-Oct-30 23:30N 31°52' W 010°34'714.6
2017-Oct-30 23:00N 31°46' W 010°39'714.4
2017-Oct-30 22:30N 31°40' W 010°44'714.2
2017-Oct-30 22:00N 31°34' W 010°49'714.1
2017-Oct-30 21:30N 31°28' W 010°53'1013.4
2017-Oct-30 20:47N 31°20' W 010°60'413.2
2017-Oct-30 20:30N 31°17' W 011°02'813.3
2017-Oct-30 19:55N 31°10' W 011°06'1213.2
2017-Oct-30 18:59N 31°00' W 011°15'713.7
2017-Oct-30 18:30N 30°55' W 011°19'713.9
2017-Oct-30 18:00N 30°49' W 011°24'714.2
2017-Oct-30 17:30N 30°43' W 011°28'714.0
2017-Oct-30 17:01N 30°37' W 011°32'714.2
2017-Oct-30 16:30N 30°31' W 011°37'714.0
2017-Oct-30 16:00N 30°26' W 011°42'713.7
2017-Oct-30 15:30N 30°20' W 011°46'713.7
2017-Oct-30 15:00N 30°14' W 011°51'813.7
2017-Oct-30 14:24N 30°07' W 011°56'4513.9
2017-Oct-30 11:11N 29°30' W 012°24'314.1
2017-Oct-30 11:00N 29°28' W 012°26'714.1
2017-Oct-30 10:30N 29°22' W 012°30'714.2
2017-Oct-30 10:00N 29°16' W 012°35'3114.2
2017-Oct-30 07:50N 28°50' W 012°54'514.2
2017-Oct-30 07:30N 28°47' W 012°58'814.2
2017-Oct-30 06:58N 28°40' W 013°02'2313.9
2017-Oct-30 05:19N 28°21' W 013°16'414.0
2017-Oct-30 05:00N 28°17' W 013°19'814.1
2017-Oct-30 04:28N 28°11' W 013°24'914.2
2017-Oct-30 03:52N 28°04' W 013°30'514.1
2017-Oct-30 03:30N 27°60' W 013°33'714.1
2017-Oct-30 03:00N 27°54' W 013°37'713.9
2017-Oct-30 02:30N 27°48' W 013°41'713.8
2017-Oct-30 02:00N 27°42' W 013°46'713.6
2017-Oct-30 01:28N 27°36' W 013°50'613.4
2017-Oct-30 01:01N 27°31' W 013°54'713.5
2017-Oct-30 00:29N 27°25' W 013°59'613.5
2017-Oct-30 00:00N 27°20' W 014°03'713.4
2017-Oct-29 23:30N 27°14' W 014°07'713.2
2017-Oct-29 22:57N 27°08' W 014°11'613.1
2017-Oct-29 22:30N 27°03' W 014°15'713.9
2017-Oct-29 21:59N 26°57' W 014°19'714.1
2017-Oct-29 21:29N 26°51' W 014°24'814.1
2017-Oct-29 20:53N 26°44' W 014°29'2114.0
2017-Oct-29 19:21N 26°27' W 014°43'5713.5
2017-Oct-29 15:09N 25°38' W 015°15'1612.2
2017-Oct-29 13:52N 25°25' W 015°24'1412.9
2017-Oct-29 12:47N 25°13' W 015°32'28513.5
2017-Oct-28 15:35N 21°02' W 017°60'213.7
2017-Oct-28 15:28N 21°00' W 018°00'1614.2
2017-Oct-28 14:21N 20°46' W 018°08'19413.6
2017-Oct-28 00:05N 17°51' W 019°36'113.9
2017-Oct-28 00:00N 17°50' W 019°36'713.7
2017-Oct-27 23:30N 17°44' W 019°39'1513.7
2017-Oct-27 22:23N 17°30' W 019°46'  

Dump ship's entire track history